Aérodrome :
LOGIN :

S'inscrire | Disclaimer

   EN    FR    IT 

 










Légende :    VFR   VFR Marginal   IFR   IFR Intensif   IFR Très Intensif
Visi : 
Plafond : 
>= 8 km
>= 3000ft
5 à 8 km
1000 à 3000 ft
1500m à 5 km
500 à 1000 ft
800 à 1500m
200 à 500 ft
< 800m
< 200 ft
Symboles :   Orages  Brouillard  Fortes neiges  Fortes précipitations  Vent > 20 kt
SIGMETs :   Divers  Orages  Givrage  Turbulence  Onde Orograph.  Cendres Volcan.






- Altitude de l'aérodrome : 768 ft
- Code IATA : MXP


LIMC - Milano Malpensa

DERNIER METAR :
  • 150120Z 01005KT CAVOK 20/17 Q1013 NOSIG

METARs EXPIRÉS :
  • 150050Z 36006KT CAVOK 20/17 Q1013 NOSIG
  • 150020Z 02005KT CAVOK 20/18 Q1013 NOSIG
  • 142350Z 34004KT CAVOK 21/17 Q1013 NOSIG
  • 142320Z 01005KT CAVOK 21/18 Q1013 NOSIG
  • 142250Z 36005KT CAVOK 21/18 Q1013 NOSIG

TAF TAF LIMC
Valide du 15 à 00h jusqu'au 16 à 06h UTC


142300Z 1500/1606 VRB05KT 9999 FEW040
TEMPO 1512/1515 4000 TSRA



MET'MAP, la Météo Aéronautique d'un coup d'oeil ! - Copyright ORBIFLY Décembre 2007 - Disclaimer

ORBIFLY MET'MAP TEAM :

Programmation & Développement : Alexandra Zaïnal
Sur une idée originale de : Baudouin d'Aumeries
Assistance à la programmation : Marc-Olivier Méhu
Soutien technique & logistique : Manuel Goepfert

Contact : metmap@orbifly.com




SOURCES & CREDITS :

   NOAA